sensor_id;sensor_type;location;lat;lon;timestamp;P1;durP1;ratioP1;P2;durP2;ratioP2
92;SDS011;16232;48.800;9.002;2023-06-24T00:01:23;7.57;;;6.83;;
92;SDS011;16232;48.800;9.002;2023-06-24T00:03:51;7.73;;;6.70;;
92;SDS011;16232;48.800;9.002;2023-06-24T00:06:20;8.67;;;6.23;;
92;SDS011;16232;48.800;9.002;2023-06-24T00:08:51;7.67;;;6.90;;
92;SDS011;16232;48.800;9.002;2023-06-24T00:11:25;7.70;;;7.00;;
92;SDS011;16232;48.800;9.002;2023-06-24T00:13:53;8.70;;;7.13;;
92;SDS011;16232;48.800;9.002;2023-06-24T00:16:20;7.93;;;7.13;;
92;SDS011;16232;48.800;9.002;2023-06-24T00:18:53;8.03;;;7.23;;
92;SDS011;16232;48.800;9.002;2023-06-24T00:21:26;12.53;;;8.07;;
92;SDS011;16232;48.800;9.002;2023-06-24T00:23:58;8.40;;;7.60;;
92;SDS011;16232;48.800;9.002;2023-06-24T00:26:27;8.73;;;7.83;;
92;SDS011;16232;48.800;9.002;2023-06-24T00:28:55;8.53;;;6.70;;
92;SDS011;16232;48.800;9.002;2023-06-24T00:31:22;7.50;;;6.80;;
92;SDS011;16232;48.800;9.002;2023-06-24T00:33:50;8.73;;;7.80;;
92;SDS011;16232;48.800;9.002;2023-06-24T00:36:18;8.93;;;8.03;;
92;SDS011;16232;48.800;9.002;2023-06-24T00:38:47;9.10;;;8.30;;
92;SDS011;16232;48.800;9.002;2023-06-24T00:41:16;9.97;;;8.57;;
92;SDS011;16232;48.800;9.002;2023-06-24T00:43:44;9.43;;;8.20;;
92;SDS011;16232;48.800;9.002;2023-06-24T00:46:12;8.73;;;7.90;;
92;SDS011;16232;48.800;9.002;2023-06-24T00:48:40;8.73;;;7.53;;
92;SDS011;16232;48.800;9.002;2023-06-24T00:51:08;8.53;;;7.63;;
92;SDS011;16232;48.800;9.002;2023-06-24T00:53:36;10.10;;;8.40;;
92;SDS011;16232;48.800;9.002;2023-06-24T00:56:05;8.60;;;7.73;;
92;SDS011;16232;48.800;9.002;2023-06-24T00:58:32;8.73;;;7.37;;
92;SDS011;16232;48.800;9.002;2023-06-24T01:01:02;9.00;;;8.10;;
92;SDS011;16232;48.800;9.002;2023-06-24T01:03:30;8.67;;;7.83;;
92;SDS011;16232;48.800;9.002;2023-06-24T01:05:58;8.83;;;8.03;;
92;SDS011;16232;48.800;9.002;2023-06-24T01:08:26;9.90;;;8.30;;
92;SDS011;16232;48.800;9.002;2023-06-24T01:10:53;9.57;;;8.60;;
92;SDS011;16232;48.800;9.002;2023-06-24T01:13:22;8.60;;;7.20;;
92;SDS011;16232;48.800;9.002;2023-06-24T01:15:49;9.70;;;8.53;;
92;SDS011;16232;48.800;9.002;2023-06-24T01:18:19;12.93;;;9.33;;
92;SDS011;16232;48.800;9.002;2023-06-24T01:20:52;9.03;;;8.13;;
92;SDS011;16232;48.800;9.002;2023-06-24T01:23:26;9.10;;;8.20;;
92;SDS011;16232;48.800;9.002;2023-06-24T01:26:12;8.50;;;7.73;;
92;SDS011;16232;48.800;9.002;2023-06-24T01:28:51;9.63;;;8.63;;
92;SDS011;16232;48.800;9.002;2023-06-24T01:31:33;9.73;;;8.83;;
92;SDS011;16232;48.800;9.002;2023-06-24T01:34:02;9.37;;;8.47;;
92;SDS011;16232;48.800;9.002;2023-06-24T01:36:32;10.43;;;9.33;;
92;SDS011;16232;48.800;9.002;2023-06-24T01:39:01;9.90;;;8.90;;
92;SDS011;16232;48.800;9.002;2023-06-24T01:41:30;9.77;;;8.77;;
92;SDS011;16232;48.800;9.002;2023-06-24T01:43:59;10.00;;;8.53;;
92;SDS011;16232;48.800;9.002;2023-06-24T01:46:28;11.00;;;9.90;;
92;SDS011;16232;48.800;9.002;2023-06-24T01:48:59;9.50;;;8.53;;
92;SDS011;16232;48.800;9.002;2023-06-24T01:51:28;10.60;;;9.03;;
92;SDS011;16232;48.800;9.002;2023-06-24T01:53:58;9.27;;;8.30;;
92;SDS011;16232;48.800;9.002;2023-06-24T01:56:27;10.63;;;8.13;;
92;SDS011;16232;48.800;9.002;2023-06-24T01:58:56;9.17;;;8.37;;
92;SDS011;16232;48.800;9.002;2023-06-24T02:01:25;9.83;;;8.90;;
92;SDS011;16232;48.800;9.002;2023-06-24T02:03:53;8.67;;;7.87;;
92;SDS011;16232;48.800;9.002;2023-06-24T02:06:23;9.67;;;8.67;;
92;SDS011;16232;48.800;9.002;2023-06-24T02:08:51;10.77;;;9.67;;
92;SDS011;16232;48.800;9.002;2023-06-24T02:11:19;11.03;;;9.93;;
92;SDS011;16232;48.800;9.002;2023-06-24T02:13:48;13.53;;;9.50;;
92;SDS011;16232;48.800;9.002;2023-06-24T02:16:16;10.93;;;9.17;;
92;SDS011;16232;48.800;9.002;2023-06-24T02:18:44;9.43;;;8.53;;
92;SDS011;16232;48.800;9.002;2023-06-24T02:21:12;10.10;;;9.07;;
92;SDS011;16232;48.800;9.002;2023-06-24T02:23:42;8.90;;;8.00;;
92;SDS011;16232;48.800;9.002;2023-06-24T02:26:10;9.97;;;8.77;;
92;SDS011;16232;48.800;9.002;2023-06-24T02:28:38;9.13;;;8.23;;
92;SDS011;16232;48.800;9.002;2023-06-24T02:31:06;9.57;;;8.63;;
92;SDS011;16232;48.800;9.002;2023-06-24T02:33:35;10.83;;;8.93;;
92;SDS011;16232;48.800;9.002;2023-06-24T02:36:03;10.27;;;9.07;;
92;SDS011;16232;48.800;9.002;2023-06-24T02:38:31;9.87;;;8.87;;
92;SDS011;16232;48.800;9.002;2023-06-24T02:41:00;10.43;;;9.13;;
92;SDS011;16232;48.800;9.002;2023-06-24T02:43:29;11.47;;;9.43;;
92;SDS011;16232;48.800;9.002;2023-06-24T02:45:57;9.93;;;8.97;;
92;SDS011;16232;48.800;9.002;2023-06-24T02:48:25;9.70;;;8.70;;
92;SDS011;16232;48.800;9.002;2023-06-24T02:50:53;9.60;;;8.23;;
92;SDS011;16232;48.800;9.002;2023-06-24T02:53:21;10.10;;;8.93;;
92;SDS011;16232;48.800;9.002;2023-06-24T02:55:48;9.13;;;8.23;;
92;SDS011;16232;48.800;9.002;2023-06-24T02:58:17;9.37;;;8.47;;
92;SDS011;16232;48.800;9.002;2023-06-24T03:00:45;10.07;;;8.63;;
92;SDS011;16232;48.800;9.002;2023-06-24T03:03:15;8.73;;;7.83;;
92;SDS011;16232;48.800;9.002;2023-06-24T03:05:42;9.07;;;8.17;;
92;SDS011;16232;48.800;9.002;2023-06-24T03:08:13;11.87;;;9.00;;
92;SDS011;16232;48.800;9.002;2023-06-24T03:10:41;11.23;;;10.03;;
92;SDS011;16232;48.800;9.002;2023-06-24T03:13:08;11.07;;;9.47;;
92;SDS011;16232;48.800;9.002;2023-06-24T03:15:37;9.70;;;8.70;;
92;SDS011;16232;48.800;9.002;2023-06-24T03:18:05;11.00;;;9.73;;
92;SDS011;16232;48.800;9.002;2023-06-24T03:20:32;9.50;;;8.57;;
92;SDS011;16232;48.800;9.002;2023-06-24T03:23:04;9.43;;;8.37;;
92;SDS011;16232;48.800;9.002;2023-06-24T03:25:32;10.40;;;9.17;;
92;SDS011;16232;48.800;9.002;2023-06-24T03:27:59;9.80;;;8.80;;
92;SDS011;16232;48.800;9.002;2023-06-24T03:30:29;11.23;;;9.40;;
92;SDS011;16232;48.800;9.002;2023-06-24T03:32:57;10.30;;;8.97;;
92;SDS011;16232;48.800;9.002;2023-06-24T03:35:25;11.83;;;8.53;;
92;SDS011;16232;48.800;9.002;2023-06-24T03:37:52;10.13;;;9.10;;
92;SDS011;16232;48.800;9.002;2023-06-24T03:40:19;10.50;;;9.50;;
92;SDS011;16232;48.800;9.002;2023-06-24T03:42:47;9.93;;;8.93;;
92;SDS011;16232;48.800;9.002;2023-06-24T03:45:14;10.47;;;9.37;;
92;SDS011;16232;48.800;9.002;2023-06-24T03:47:42;8.60;;;7.53;;
92;SDS011;16232;48.800;9.002;2023-06-24T03:50:11;10.50;;;9.40;;
92;SDS011;16232;48.800;9.002;2023-06-24T03:52:38;9.60;;;8.33;;
92;SDS011;16232;48.800;9.002;2023-06-24T03:55:06;10.70;;;9.37;;
92;SDS011;16232;48.800;9.002;2023-06-24T03:57:33;9.47;;;8.47;;
92;SDS011;16232;48.800;9.002;2023-06-24T04:00:01;10.33;;;9.23;;
92;SDS011;16232;48.800;9.002;2023-06-24T04:02:32;9.07;;;8.17;;
92;SDS011;16232;48.800;9.002;2023-06-24T04:05:01;8.07;;;7.30;;
92;SDS011;16232;48.800;9.002;2023-06-24T04:07:32;7.60;;;6.73;;
92;SDS011;16232;48.800;9.002;2023-06-24T04:10:01;7.93;;;7.13;;
92;SDS011;16232;48.800;9.002;2023-06-24T04:12:33;9.97;;;8.97;;
92;SDS011;16232;48.800;9.002;2023-06-24T04:15:01;9.67;;;8.67;;
92;SDS011;16232;48.800;9.002;2023-06-24T04:17:30;9.77;;;8.80;;
92;SDS011;16232;48.800;9.002;2023-06-24T04:19:57;8.50;;;7.70;;
92;SDS011;16232;48.800;9.002;2023-06-24T04:22:25;9.53;;;8.27;;
92;SDS011;16232;48.800;9.002;2023-06-24T04:24:54;8.17;;;7.33;;
92;SDS011;16232;48.800;9.002;2023-06-24T04:27:21;8.50;;;7.70;;
92;SDS011;16232;48.800;9.002;2023-06-24T04:29:49;8.60;;;7.80;;
92;SDS011;16232;48.800;9.002;2023-06-24T04:32:16;7.53;;;6.73;;
92;SDS011;16232;48.800;9.002;2023-06-24T04:34:43;7.70;;;7.00;;
92;SDS011;16232;48.800;9.002;2023-06-24T04:37:11;7.40;;;6.70;;
92;SDS011;16232;48.800;9.002;2023-06-24T04:39:38;8.10;;;7.30;;
92;SDS011;16232;48.800;9.002;2023-06-24T04:42:07;7.33;;;6.63;;
92;SDS011;16232;48.800;9.002;2023-06-24T04:44:35;7.50;;;6.80;;
92;SDS011;16232;48.800;9.002;2023-06-24T04:47:03;9.97;;;8.27;;
92;SDS011;16232;48.800;9.002;2023-06-24T04:49:30;9.10;;;7.17;;
92;SDS011;16232;48.800;9.002;2023-06-24T04:51:59;9.47;;;8.00;;
92;SDS011;16232;48.800;9.002;2023-06-24T04:54:27;8.83;;;7.17;;
92;SDS011;16232;48.800;9.002;2023-06-24T04:56:54;7.70;;;6.87;;
92;SDS011;16232;48.800;9.002;2023-06-24T04:59:24;9.03;;;7.57;;
92;SDS011;16232;48.800;9.002;2023-06-24T05:01:51;7.40;;;6.70;;
92;SDS011;16232;48.800;9.002;2023-06-24T05:04:18;7.30;;;6.60;;
92;SDS011;16232;48.800;9.002;2023-06-24T05:06:46;8.53;;;7.60;;
92;SDS011;16232;48.800;9.002;2023-06-24T05:09:14;8.00;;;7.30;;
92;SDS011;16232;48.800;9.002;2023-06-24T05:11:41;8.90;;;8.00;;
92;SDS011;16232;48.800;9.002;2023-06-24T05:14:09;8.10;;;7.30;;
92;SDS011;16232;48.800;9.002;2023-06-24T05:16:38;10.37;;;7.30;;
92;SDS011;16232;48.800;9.002;2023-06-24T05:19:05;7.73;;;7.03;;
92;SDS011;16232;48.800;9.002;2023-06-24T05:21:32;9.00;;;7.13;;
92;SDS011;16232;48.800;9.002;2023-06-24T05:24:00;8.60;;;7.80;;
92;SDS011;16232;48.800;9.002;2023-06-24T05:26:27;8.13;;;6.80;;
92;SDS011;16232;48.800;9.002;2023-06-24T05:28:55;10.90;;;7.43;;
92;SDS011;16232;48.800;9.002;2023-06-24T05:31:22;7.37;;;6.37;;
92;SDS011;16232;48.800;9.002;2023-06-24T05:33:51;7.17;;;6.47;;
92;SDS011;16232;48.800;9.002;2023-06-24T05:36:18;6.93;;;6.20;;
92;SDS011;16232;48.800;9.002;2023-06-24T05:38:46;7.73;;;7.00;;
92;SDS011;16232;48.800;9.002;2023-06-24T05:41:13;7.27;;;6.57;;
92;SDS011;16232;48.800;9.002;2023-06-24T05:43:42;7.03;;;6.13;;
92;SDS011;16232;48.800;9.002;2023-06-24T05:46:09;6.40;;;5.80;;
92;SDS011;16232;48.800;9.002;2023-06-24T05:48:37;6.57;;;5.97;;
92;SDS011;16232;48.800;9.002;2023-06-24T05:51:06;7.47;;;6.40;;
92;SDS011;16232;48.800;9.002;2023-06-24T05:53:34;7.93;;;6.90;;
92;SDS011;16232;48.800;9.002;2023-06-24T05:56:01;6.33;;;5.70;;
92;SDS011;16232;48.800;9.002;2023-06-24T05:58:29;8.50;;;6.10;;
92;SDS011;16232;48.800;9.002;2023-06-24T06:00:56;8.40;;;6.70;;
92;SDS011;16232;48.800;9.002;2023-06-24T06:03:25;6.50;;;5.83;;
92;SDS011;16232;48.800;9.002;2023-06-24T06:05:53;6.17;;;5.53;;
92;SDS011;16232;48.800;9.002;2023-06-24T06:08:21;6.47;;;5.87;;
92;SDS011;16232;48.800;9.002;2023-06-24T06:10:49;6.47;;;5.37;;
92;SDS011;16232;48.800;9.002;2023-06-24T06:13:16;5.33;;;4.83;;
92;SDS011;16232;48.800;9.002;2023-06-24T06:15:44;5.40;;;4.90;;
92;SDS011;16232;48.800;9.002;2023-06-24T06:18:11;5.60;;;5.00;;
92;SDS011;16232;48.800;9.002;2023-06-24T06:20:39;6.00;;;5.00;;
92;SDS011;16232;48.800;9.002;2023-06-24T06:23:07;5.30;;;4.80;;
92;SDS011;16232;48.800;9.002;2023-06-24T06:25:36;5.10;;;4.70;;
92;SDS011;16232;48.800;9.002;2023-06-24T06:28:03;5.37;;;4.70;;
92;SDS011;16232;48.800;9.002;2023-06-24T06:30:31;4.80;;;4.30;;
92;SDS011;16232;48.800;9.002;2023-06-24T06:32:58;5.37;;;4.87;;
92;SDS011;16232;48.800;9.002;2023-06-24T06:35:26;5.17;;;4.73;;
92;SDS011;16232;48.800;9.002;2023-06-24T06:37:53;4.83;;;4.43;;
92;SDS011;16232;48.800;9.002;2023-06-24T06:40:20;4.87;;;4.37;;
92;SDS011;16232;48.800;9.002;2023-06-24T06:42:49;5.13;;;4.63;;
92;SDS011;16232;48.800;9.002;2023-06-24T06:45:17;4.73;;;3.87;;
92;SDS011;16232;48.800;9.002;2023-06-24T06:47:44;4.43;;;4.03;;
92;SDS011;16232;48.800;9.002;2023-06-24T06:50:12;4.40;;;4.00;;
92;SDS011;16232;48.800;9.002;2023-06-24T06:52:39;5.13;;;4.20;;
92;SDS011;16232;48.800;9.002;2023-06-24T06:55:07;4.53;;;4.03;;
92;SDS011;16232;48.800;9.002;2023-06-24T06:57:34;4.53;;;3.87;;
92;SDS011;16232;48.800;9.002;2023-06-24T07:00:04;4.10;;;3.57;;
92;SDS011;16232;48.800;9.002;2023-06-24T07:02:31;3.80;;;3.40;;
92;SDS011;16232;48.800;9.002;2023-06-24T07:04:59;3.60;;;3.30;;
92;SDS011;16232;48.800;9.002;2023-06-24T07:07:27;4.03;;;3.63;;
92;SDS011;16232;48.800;9.002;2023-06-24T07:09:54;4.37;;;3.97;;
92;SDS011;16232;48.800;9.002;2023-06-24T07:12:22;5.17;;;4.13;;
92;SDS011;16232;48.800;9.002;2023-06-24T07:14:49;3.70;;;3.40;;
92;SDS011;16232;48.800;9.002;2023-06-24T07:17:18;3.60;;;3.30;;
92;SDS011;16232;48.800;9.002;2023-06-24T07:19:45;3.80;;;3.50;;
92;SDS011;16232;48.800;9.002;2023-06-24T07:22:13;4.00;;;3.60;;
92;SDS011;16232;48.800;9.002;2023-06-24T07:24:41;3.77;;;3.47;;
92;SDS011;16232;48.800;9.002;2023-06-24T07:27:08;3.73;;;3.20;;
92;SDS011;16232;48.800;9.002;2023-06-24T07:29:35;4.00;;;3.53;;
92;SDS011;16232;48.800;9.002;2023-06-24T07:32:03;3.97;;;3.63;;
92;SDS011;16232;48.800;9.002;2023-06-24T07:34:34;3.50;;;3.20;;
92;SDS011;16232;48.800;9.002;2023-06-24T07:37:01;3.47;;;3.17;;
92;SDS011;16232;48.800;9.002;2023-06-24T07:39:28;3.70;;;3.40;;
92;SDS011;16232;48.800;9.002;2023-06-24T07:41:56;4.33;;;3.30;;
92;SDS011;16232;48.800;9.002;2023-06-24T07:44:23;3.43;;;3.13;;
92;SDS011;16232;48.800;9.002;2023-06-24T07:46:51;4.30;;;3.90;;
92;SDS011;16232;48.800;9.002;2023-06-24T07:49:18;4.03;;;3.47;;
92;SDS011;16232;48.800;9.002;2023-06-24T07:51:47;3.50;;;3.20;;
92;SDS011;16232;48.800;9.002;2023-06-24T07:54:14;3.73;;;3.43;;
92;SDS011;16232;48.800;9.002;2023-06-24T07:56:42;3.37;;;3.07;;
92;SDS011;16232;48.800;9.002;2023-06-24T07:59:09;3.57;;;3.27;;
92;SDS011;16232;48.800;9.002;2023-06-24T08:01:37;3.57;;;3.27;;
92;SDS011;16232;48.800;9.002;2023-06-24T08:04:04;3.77;;;3.47;;
92;SDS011;16232;48.800;9.002;2023-06-24T08:06:32;4.33;;;3.13;;
92;SDS011;16232;48.800;9.002;2023-06-24T08:09:01;3.30;;;3.00;;
92;SDS011;16232;48.800;9.002;2023-06-24T08:11:28;4.10;;;3.40;;
92;SDS011;16232;48.800;9.002;2023-06-24T08:13:56;2.97;;;2.73;;
92;SDS011;16232;48.800;9.002;2023-06-24T08:16:23;4.18;;;3.40;;
92;SDS011;16232;48.800;9.002;2023-06-24T08:18:51;3.53;;;3.22;;
92;SDS011;16232;48.800;9.002;2023-06-24T08:21:18;3.33;;;3.03;;
92;SDS011;16232;48.800;9.002;2023-06-24T08:23:46;3.37;;;3.03;;
92;SDS011;16232;48.800;9.002;2023-06-24T08:26:16;3.60;;;3.30;;
92;SDS011;16232;48.800;9.002;2023-06-24T08:28:45;3.37;;;3.07;;
92;SDS011;16232;48.800;9.002;2023-06-24T08:31:12;3.60;;;3.30;;
92;SDS011;16232;48.800;9.002;2023-06-24T08:33:42;3.50;;;3.20;;
92;SDS011;16232;48.800;9.002;2023-06-24T08:36:11;3.60;;;3.30;;
92;SDS011;16232;48.800;9.002;2023-06-24T08:38:38;3.60;;;3.30;;
92;SDS011;16232;48.800;9.002;2023-06-24T08:41:06;3.65;;;3.35;;
92;SDS011;16232;48.800;9.002;2023-06-24T08:43:35;3.55;;;3.20;;
92;SDS011;16232;48.800;9.002;2023-06-24T08:46:04;3.33;;;3.03;;
92;SDS011;16232;48.800;9.002;2023-06-24T08:48:31;3.42;;;3.05;;
92;SDS011;16232;48.800;9.002;2023-06-24T08:51:05;2.80;;;2.60;;
92;SDS011;16232;48.800;9.002;2023-06-24T08:53:34;3.58;;;2.83;;
92;SDS011;16232;48.800;9.002;2023-06-24T08:56:03;2.85;;;2.65;;
92;SDS011;16232;48.800;9.002;2023-06-24T08:58:30;3.53;;;2.75;;
92;SDS011;16232;48.800;9.002;2023-06-24T09:00:59;3.17;;;2.97;;
92;SDS011;16232;48.800;9.002;2023-06-24T09:03:27;3.42;;;2.67;;
92;SDS011;16232;48.800;9.002;2023-06-24T09:05:54;2.90;;;2.65;;
92;SDS011;16232;48.800;9.002;2023-06-24T09:08:22;3.25;;;2.63;;
92;SDS011;16232;48.800;9.002;2023-06-24T09:10:52;2.80;;;2.60;;
92;SDS011;16232;48.800;9.002;2023-06-24T09:13:20;5.93;;;2.90;;
92;SDS011;16232;48.800;9.002;2023-06-24T09:15:50;3.53;;;2.70;;
92;SDS011;16232;48.800;9.002;2023-06-24T09:18:19;3.10;;;2.90;;
92;SDS011;16232;48.800;9.002;2023-06-24T09:20:46;3.03;;;2.80;;
92;SDS011;16232;48.800;9.002;2023-06-24T09:23:16;2.87;;;2.67;;
92;SDS011;16232;48.800;9.002;2023-06-24T09:25:44;2.80;;;2.60;;
92;SDS011;16232;48.800;9.002;2023-06-24T09:28:12;2.70;;;2.42;;
92;SDS011;16232;48.800;9.002;2023-06-24T09:30:40;3.20;;;2.90;;
92;SDS011;16232;48.800;9.002;2023-06-24T09:33:10;3.10;;;2.80;;
92;SDS011;16232;48.800;9.002;2023-06-24T09:35:39;3.07;;;2.77;;
92;SDS011;16232;48.800;9.002;2023-06-24T09:38:07;3.50;;;3.20;;
92;SDS011;16232;48.800;9.002;2023-06-24T09:40:34;2.88;;;2.58;;
92;SDS011;16232;48.800;9.002;2023-06-24T09:43:02;2.80;;;2.60;;
92;SDS011;16232;48.800;9.002;2023-06-24T09:45:30;2.58;;;2.38;;
92;SDS011;16232;48.800;9.002;2023-06-24T09:47:57;2.70;;;2.50;;
92;SDS011;16232;48.800;9.002;2023-06-24T09:50:25;2.67;;;2.45;;
92;SDS011;16232;48.800;9.002;2023-06-24T09:52:54;3.63;;;2.60;;
92;SDS011;16232;48.800;9.002;2023-06-24T09:55:24;2.55;;;2.35;;
92;SDS011;16232;48.800;9.002;2023-06-24T09:57:52;2.90;;;2.70;;
92;SDS011;16232;48.800;9.002;2023-06-24T10:00:20;2.90;;;2.70;;
92;SDS011;16232;48.800;9.002;2023-06-24T10:02:48;2.33;;;2.13;;
92;SDS011;16232;48.800;9.002;2023-06-24T10:05:16;3.30;;;2.50;;
92;SDS011;16232;48.800;9.002;2023-06-24T10:07:43;3.20;;;2.42;;
92;SDS011;16232;48.800;9.002;2023-06-24T10:10:12;3.38;;;2.35;;
92;SDS011;16232;48.800;9.002;2023-06-24T10:12:40;3.25;;;2.50;;
92;SDS011;16232;48.800;9.002;2023-06-24T10:15:07;2.28;;;2.13;;
92;SDS011;16232;48.800;9.002;2023-06-24T10:17:35;2.40;;;2.20;;
92;SDS011;16232;48.800;9.002;2023-06-24T10:20:06;2.45;;;2.22;;
92;SDS011;16232;48.800;9.002;2023-06-24T10:22:33;2.78;;;2.50;;
92;SDS011;16232;48.800;9.002;2023-06-24T10:25:04;3.17;;;2.05;;
92;SDS011;16232;48.800;9.002;2023-06-24T10:27:39;3.10;;;2.30;;
92;SDS011;16232;48.800;9.002;2023-06-24T10:30:07;2.95;;;2.40;;
92;SDS011;16232;48.800;9.002;2023-06-24T10:32:44;2.67;;;2.47;;
92;SDS011;16232;48.800;9.002;2023-06-24T10:35:22;2.50;;;2.30;;
92;SDS011;16232;48.800;9.002;2023-06-24T10:37:54;2.72;;;2.53;;
92;SDS011;16232;48.800;9.002;2023-06-24T10:40:35;2.65;;;2.35;;
92;SDS011;16232;48.800;9.002;2023-06-24T10:43:22;2.72;;;2.47;;
92;SDS011;16232;48.800;9.002;2023-06-24T10:45:50;2.92;;;2.30;;
92;SDS011;16232;48.800;9.002;2023-06-24T10:48:17;2.30;;;2.10;;
92;SDS011;16232;48.800;9.002;2023-06-24T10:50:46;2.65;;;2.45;;
92;SDS011;16232;48.800;9.002;2023-06-24T10:53:14;2.05;;;1.95;;
92;SDS011;16232;48.800;9.002;2023-06-24T10:55:43;2.45;;;1.80;;
92;SDS011;16232;48.800;9.002;2023-06-24T10:58:13;2.35;;;2.15;;
92;SDS011;16232;48.800;9.002;2023-06-24T11:00:41;2.38;;;2.17;;
92;SDS011;16232;48.800;9.002;2023-06-24T11:03:11;2.58;;;2.38;;
92;SDS011;16232;48.800;9.002;2023-06-24T11:05:39;2.40;;;2.28;;
92;SDS011;16232;48.800;9.002;2023-06-24T11:08:07;2.38;;;2.00;;
92;SDS011;16232;48.800;9.002;2023-06-24T11:10:41;2.90;;;2.60;;
92;SDS011;16232;48.800;9.002;2023-06-24T11:13:09;2.72;;;2.40;;
92;SDS011;16232;48.800;9.002;2023-06-24T11:15:39;2.47;;;2.28;;
92;SDS011;16232;48.800;9.002;2023-06-24T11:18:07;2.42;;;2.22;;
92;SDS011;16232;48.800;9.002;2023-06-24T11:20:35;2.45;;;2.25;;
92;SDS011;16232;48.800;9.002;2023-06-24T11:23:06;2.30;;;2.10;;
92;SDS011;16232;48.800;9.002;2023-06-24T11:25:38;2.58;;;2.38;;
92;SDS011;16232;48.800;9.002;2023-06-24T11:28:11;2.28;;;2.08;;
92;SDS011;16232;48.800;9.002;2023-06-24T11:30:40;2.22;;;2.08;;
92;SDS011;16232;48.800;9.002;2023-06-24T11:33:07;2.40;;;2.20;;
92;SDS011;16232;48.800;9.002;2023-06-24T11:35:35;2.78;;;2.58;;
92;SDS011;16232;48.800;9.002;2023-06-24T11:38:02;2.70;;;2.50;;
92;SDS011;16232;48.800;9.002;2023-06-24T11:40:31;2.97;;;2.47;;
92;SDS011;16232;48.800;9.002;2023-06-24T11:43:00;2.47;;;2.28;;
92;SDS011;16232;48.800;9.002;2023-06-24T11:45:28;2.30;;;2.10;;
92;SDS011;16232;48.800;9.002;2023-06-24T11:48:03;3.63;;;2.13;;
92;SDS011;16232;48.800;9.002;2023-06-24T11:50:32;2.53;;;2.33;;
92;SDS011;16232;48.800;9.002;2023-06-24T11:52:59;2.38;;;2.17;;
92;SDS011;16232;48.800;9.002;2023-06-24T11:55:27;2.80;;;2.55;;
92;SDS011;16232;48.800;9.002;2023-06-24T11:57:55;2.53;;;2.33;;
92;SDS011;16232;48.800;9.002;2023-06-24T12:00:24;2.25;;;2.05;;
92;SDS011;16232;48.800;9.002;2023-06-24T12:02:55;2.30;;;2.10;;
92;SDS011;16232;48.800;9.002;2023-06-24T12:05:26;2.30;;;2.10;;
92;SDS011;16232;48.800;9.002;2023-06-24T12:07:54;2.05;;;1.90;;
92;SDS011;16232;48.800;9.002;2023-06-24T12:10:22;2.30;;;2.10;;
92;SDS011;16232;48.800;9.002;2023-06-24T12:12:50;2.38;;;2.17;;
92;SDS011;16232;48.800;9.002;2023-06-24T12:15:17;4.93;;;2.08;;
92;SDS011;16232;48.800;9.002;2023-06-24T12:17:44;2.20;;;1.90;;
92;SDS011;16232;48.800;9.002;2023-06-24T12:20:12;2.33;;;2.13;;
92;SDS011;16232;48.800;9.002;2023-06-24T12:22:42;2.67;;;2.08;;
92;SDS011;16232;48.800;9.002;2023-06-24T12:25:09;2.10;;;2.00;;
92;SDS011;16232;48.800;9.002;2023-06-24T12:27:37;2.38;;;2.17;;
92;SDS011;16232;48.800;9.002;2023-06-24T12:30:06;1.92;;;1.83;;
92;SDS011;16232;48.800;9.002;2023-06-24T12:32:34;2.63;;;1.80;;
92;SDS011;16232;48.800;9.002;2023-06-24T12:35:01;1.83;;;1.73;;
92;SDS011;16232;48.800;9.002;2023-06-24T12:37:30;2.30;;;2.10;;
92;SDS011;16232;48.800;9.002;2023-06-24T12:39:59;2.47;;;2.08;;
92;SDS011;16232;48.800;9.002;2023-06-24T12:42:27;2.17;;;2.08;;
92;SDS011;16232;48.800;9.002;2023-06-24T12:44:54;2.47;;;2.13;;
92;SDS011;16232;48.800;9.002;2023-06-24T12:47:22;2.45;;;2.25;;
92;SDS011;16232;48.800;9.002;2023-06-24T12:49:49;2.17;;;1.98;;
92;SDS011;16232;48.800;9.002;2023-06-24T12:52:18;2.22;;;2.10;;
92;SDS011;16232;48.800;9.002;2023-06-24T12:54:45;2.67;;;1.88;;
92;SDS011;16232;48.800;9.002;2023-06-24T12:57:15;2.60;;;2.40;;
92;SDS011;16232;48.800;9.002;2023-06-24T12:59:42;2.47;;;2.28;;
92;SDS011;16232;48.800;9.002;2023-06-24T13:02:10;2.60;;;2.40;;
92;SDS011;16232;48.800;9.002;2023-06-24T13:04:37;2.50;;;2.08;;
92;SDS011;16232;48.800;9.002;2023-06-24T13:07:05;2.33;;;2.13;;
92;SDS011;16232;48.800;9.002;2023-06-24T13:09:32;2.33;;;2.13;;
92;SDS011;16232;48.800;9.002;2023-06-24T13:12:00;5.55;;;2.50;;
92;SDS011;16232;48.800;9.002;2023-06-24T13:14:29;5.97;;;3.03;;
92;SDS011;16232;48.800;9.002;2023-06-24T13:16:56;8.10;;;2.65;;
92;SDS011;16232;48.800;9.002;2023-06-24T13:19:24;8.48;;;3.90;;
92;SDS011;16232;48.800;9.002;2023-06-24T13:21:51;3.97;;;2.83;;
92;SDS011;16232;48.800;9.002;2023-06-24T13:24:19;55.85;;;13.88;;
92;SDS011;16232;48.800;9.002;2023-06-24T13:26:46;14.98;;;3.70;;
92;SDS011;16232;48.800;9.002;2023-06-24T13:29:13;8.15;;;3.10;;
92;SDS011;16232;48.800;9.002;2023-06-24T13:31:42;2.50;;;2.30;;
92;SDS011;16232;48.800;9.002;2023-06-24T13:34:10;2.22;;;2.10;;
92;SDS011;16232;48.800;9.002;2023-06-24T13:36:37;3.25;;;2.30;;
92;SDS011;16232;48.800;9.002;2023-06-24T13:39:06;2.45;;;2.25;;
92;SDS011;16232;48.800;9.002;2023-06-24T13:41:34;3.90;;;2.55;;
92;SDS011;16232;48.800;9.002;2023-06-24T13:44:02;2.20;;;2.10;;
92;SDS011;16232;48.800;9.002;2023-06-24T13:46:30;3.10;;;2.80;;
92;SDS011;16232;48.800;9.002;2023-06-24T13:48:59;2.90;;;2.60;;
92;SDS011;16232;48.800;9.002;2023-06-24T13:51:26;2.30;;;2.10;;
92;SDS011;16232;48.800;9.002;2023-06-24T13:53:54;2.53;;;2.20;;
92;SDS011;16232;48.800;9.002;2023-06-24T13:56:22;2.40;;;2.20;;
92;SDS011;16232;48.800;9.002;2023-06-24T13:58:50;3.10;;;2.60;;
92;SDS011;16232;48.800;9.002;2023-06-24T14:01:17;2.77;;;2.57;;
92;SDS011;16232;48.800;9.002;2023-06-24T14:03:45;2.93;;;2.70;;
92;SDS011;16232;48.800;9.002;2023-06-24T14:06:15;2.57;;;2.33;;
92;SDS011;16232;48.800;9.002;2023-06-24T14:08:42;2.80;;;2.60;;
92;SDS011;16232;48.800;9.002;2023-06-24T14:11:10;3.37;;;2.60;;
92;SDS011;16232;48.800;9.002;2023-06-24T14:13:37;2.53;;;2.33;;
92;SDS011;16232;48.800;9.002;2023-06-24T14:16:05;2.73;;;2.53;;
92;SDS011;16232;48.800;9.002;2023-06-24T14:18:32;3.10;;;2.80;;
92;SDS011;16232;48.800;9.002;2023-06-24T14:21:00;2.37;;;2.17;;
92;SDS011;16232;48.800;9.002;2023-06-24T14:23:29;2.70;;;2.50;;
92;SDS011;16232;48.800;9.002;2023-06-24T14:25:58;3.13;;;2.83;;
92;SDS011;16232;48.800;9.002;2023-06-24T14:28:25;2.70;;;2.33;;
92;SDS011;16232;48.800;9.002;2023-06-24T14:30:53;2.90;;;2.67;;
92;SDS011;16232;48.800;9.002;2023-06-24T14:33:20;3.20;;;2.77;;
92;SDS011;16232;48.800;9.002;2023-06-24T14:35:51;2.90;;;2.67;;
92;SDS011;16232;48.800;9.002;2023-06-24T14:38:18;2.93;;;2.73;;
92;SDS011;16232;48.800;9.002;2023-06-24T14:40:47;3.10;;;2.77;;
92;SDS011;16232;48.800;9.002;2023-06-24T14:43:15;3.07;;;2.87;;
92;SDS011;16232;48.800;9.002;2023-06-24T14:45:44;4.73;;;3.30;;
92;SDS011;16232;48.800;9.002;2023-06-24T14:48:12;3.30;;;3.00;;
92;SDS011;16232;48.800;9.002;2023-06-24T14:50:39;2.97;;;2.60;;
92;SDS011;16232;48.800;9.002;2023-06-24T14:53:07;3.40;;;2.93;;
92;SDS011;16232;48.800;9.002;2023-06-24T14:55:34;3.10;;;2.80;;
92;SDS011;16232;48.800;9.002;2023-06-24T14:58:03;2.90;;;2.70;;
92;SDS011;16232;48.800;9.002;2023-06-24T15:00:30;3.33;;;2.97;;
92;SDS011;16232;48.800;9.002;2023-06-24T15:02:58;2.73;;;2.53;;
92;SDS011;16232;48.800;9.002;2023-06-24T15:05:25;2.97;;;2.70;;
92;SDS011;16232;48.800;9.002;2023-06-24T15:07:52;3.17;;;2.40;;
92;SDS011;16232;48.800;9.002;2023-06-24T15:10:20;3.03;;;2.80;;
92;SDS011;16232;48.800;9.002;2023-06-24T15:12:47;3.23;;;2.80;;
92;SDS011;16232;48.800;9.002;2023-06-24T15:15:16;3.47;;;3.17;;
92;SDS011;16232;48.800;9.002;2023-06-24T15:17:44;3.10;;;2.80;;
92;SDS011;16232;48.800;9.002;2023-06-24T15:20:12;2.80;;;2.60;;
92;SDS011;16232;48.800;9.002;2023-06-24T15:22:40;3.43;;;2.87;;
92;SDS011;16232;48.800;9.002;2023-06-24T15:25:07;3.70;;;2.80;;
92;SDS011;16232;48.800;9.002;2023-06-24T15:27:35;2.97;;;2.77;;
92;SDS011;16232;48.800;9.002;2023-06-24T15:30:03;2.83;;;2.63;;
92;SDS011;16232;48.800;9.002;2023-06-24T15:32:31;2.87;;;2.67;;
92;SDS011;16232;48.800;9.002;2023-06-24T15:35:01;2.97;;;2.77;;
92;SDS011;16232;48.800;9.002;2023-06-24T15:37:28;4.03;;;3.20;;